sensor_id;sensor_type;location;lat;lon;timestamp;pressure;altitude;pressure_sealevel;temperature;humidity
68077;BME280;54866;53.458;14.540;2022-09-04T00:00:05;101357.21;;;13.10;54.60
68077;BME280;54866;53.458;14.540;2022-09-04T00:03:01;101359.87;;;13.08;54.64
68077;BME280;54866;53.458;14.540;2022-09-04T00:05:43;101364.55;;;13.05;54.80
68077;BME280;54866;53.458;14.540;2022-09-04T00:08:25;101360.38;;;13.02;54.99
68077;BME280;54866;53.458;14.540;2022-09-04T00:11:03;101358.21;;;12.97;54.99
68077;BME280;54866;53.458;14.540;2022-09-04T00:13:42;101358.74;;;12.95;54.92
68077;BME280;54866;53.458;14.540;2022-09-04T00:16:19;101359.25;;;12.93;55.06
68077;BME280;54866;53.458;14.540;2022-09-04T00:18:59;101360.27;;;12.91;55.13
68077;BME280;54866;53.458;14.540;2022-09-04T00:21:35;101359.66;;;12.88;55.39
68077;BME280;54866;53.458;14.540;2022-09-04T00:24:12;101358.10;;;12.86;55.34
68077;BME280;54866;53.458;14.540;2022-09-04T00:26:51;101359.14;;;12.86;55.37
68077;BME280;54866;53.458;14.540;2022-09-04T00:29:31;101357.59;;;12.85;55.68
68077;BME280;54866;53.458;14.540;2022-09-04T00:32:11;101358.95;;;12.83;55.86
68077;BME280;54866;53.458;14.540;2022-09-04T00:34:58;101349.61;;;12.79;55.87
68077;BME280;54866;53.458;14.540;2022-09-04T00:37:34;101357.95;;;12.83;56.13
68077;BME280;54866;53.458;14.540;2022-09-04T00:40:12;101361.36;;;12.82;56.32
68077;BME280;54866;53.458;14.540;2022-09-04T00:43:03;101359.75;;;12.78;56.68
68077;BME280;54866;53.458;14.540;2022-09-04T00:45:44;101366.70;;;12.77;56.50
68077;BME280;54866;53.458;14.540;2022-09-04T00:48:50;101366.75;;;12.77;56.24
68077;BME280;54866;53.458;14.540;2022-09-04T00:51:30;101370.95;;;12.77;56.38
68077;BME280;54866;53.458;14.540;2022-09-04T01:00:19;101367.92;;;12.71;56.70
68077;BME280;54866;53.458;14.540;2022-09-04T01:03:26;101367.63;;;12.67;56.91
68077;BME280;54866;53.458;14.540;2022-09-04T01:06:11;101360.38;;;12.65;57.00
68077;BME280;54866;53.458;14.540;2022-09-04T01:09:08;101363.06;;;12.64;57.15
68077;BME280;54866;53.458;14.540;2022-09-04T01:11:51;101371.81;;;12.61;57.35
68077;BME280;54866;53.458;14.540;2022-09-04T01:14:29;101371.90;;;12.58;57.37
68077;BME280;54866;53.458;14.540;2022-09-04T01:17:13;101369.77;;;12.51;57.66
68077;BME280;54866;53.458;14.540;2022-09-04T01:19:55;101361.38;;;12.43;57.65
68077;BME280;54866;53.458;14.540;2022-09-04T01:22:50;101368.56;;;12.44;58.05
68077;BME280;54866;53.458;14.540;2022-09-04T01:25:46;101369.74;;;12.37;58.37
68077;BME280;54866;53.458;14.540;2022-09-04T01:28:25;101374.64;;;12.33;58.84
68077;BME280;54866;53.458;14.540;2022-09-04T01:31:00;101366.73;;;12.30;59.19
68077;BME280;54866;53.458;14.540;2022-09-04T01:33:37;101367.09;;;12.25;59.36
68077;BME280;54866;53.458;14.540;2022-09-04T01:36:21;101365.80;;;12.24;59.25
68077;BME280;54866;53.458;14.540;2022-09-04T01:38:57;101362.07;;;12.22;59.38
68077;BME280;54866;53.458;14.540;2022-09-04T01:41:34;101361.48;;;12.18;59.67
68077;BME280;54866;53.458;14.540;2022-09-04T01:44:10;101362.63;;;12.17;59.92
68077;BME280;54866;53.458;14.540;2022-09-04T01:47:00;101359.50;;;12.16;59.91
68077;BME280;54866;53.458;14.540;2022-09-04T01:49:37;101357.64;;;12.15;59.88
68077;BME280;54866;53.458;14.540;2022-09-04T01:52:22;101355.65;;;12.13;60.12
68077;BME280;54866;53.458;14.540;2022-09-04T01:55:01;101352.80;;;12.11;60.05
68077;BME280;54866;53.458;14.540;2022-09-04T01:57:56;101357.71;;;12.09;60.26
68077;BME280;54866;53.458;14.540;2022-09-04T02:00:32;101355.86;;;12.07;60.42
68077;BME280;54866;53.458;14.540;2022-09-04T02:03:11;101361.05;;;12.04;60.51
68077;BME280;54866;53.458;14.540;2022-09-04T02:05:55;101358.36;;;12.00;60.55
68077;BME280;54866;53.458;14.540;2022-09-04T02:08:42;101355.88;;;11.98;60.86
68077;BME280;54866;53.458;14.540;2022-09-04T02:11:18;101360.03;;;11.94;60.95
68077;BME280;54866;53.458;14.540;2022-09-04T02:14:07;101360.34;;;11.90;61.38
68077;BME280;54866;53.458;14.540;2022-09-04T02:16:45;101359.44;;;11.86;61.44
68077;BME280;54866;53.458;14.540;2022-09-04T02:19:34;101362.02;;;11.82;61.46
68077;BME280;54866;53.458;14.540;2022-09-04T02:22:10;101363.11;;;11.78;61.81
68077;BME280;54866;53.458;14.540;2022-09-04T02:24:51;101361.44;;;11.74;62.21
68077;BME280;54866;53.458;14.540;2022-09-04T02:27:33;101362.80;;;11.73;62.16
68077;BME280;54866;53.458;14.540;2022-09-04T02:30:05;101357.01;;;11.67;62.48
68077;BME280;54866;53.458;14.540;2022-09-04T02:32:41;101356.14;;;11.62;62.87
68077;BME280;54866;53.458;14.540;2022-09-04T02:35:19;101361.19;;;11.58;62.93
68077;BME280;54866;53.458;14.540;2022-09-04T02:38:00;101363.59;;;11.54;63.03
68077;BME280;54866;53.458;14.540;2022-09-04T02:40:40;101363.27;;;11.52;63.26
68077;BME280;54866;53.458;14.540;2022-09-04T02:43:23;101361.55;;;11.51;63.44
68077;BME280;54866;53.458;14.540;2022-09-04T02:46:01;101356.11;;;11.48;63.43
68077;BME280;54866;53.458;14.540;2022-09-04T02:48:45;101362.12;;;11.45;63.79
68077;BME280;54866;53.458;14.540;2022-09-04T02:51:27;101362.61;;;11.43;63.85
68077;BME280;54866;53.458;14.540;2022-09-04T02:54:06;101356.50;;;11.40;64.19
68077;BME280;54866;53.458;14.540;2022-09-04T02:56:45;101358.83;;;11.37;64.10
68077;BME280;54866;53.458;14.540;2022-09-04T02:59:26;101363.42;;;11.35;64.41
68077;BME280;54866;53.458;14.540;2022-09-04T03:02:00;101363.20;;;11.33;64.31
68077;BME280;54866;53.458;14.540;2022-09-04T03:04:40;101360.70;;;11.31;64.51
68077;BME280;54866;53.458;14.540;2022-09-04T03:07:23;101358.79;;;11.28;64.77
68077;BME280;54866;53.458;14.540;2022-09-04T03:10:02;101359.73;;;11.27;65.03
68077;BME280;54866;53.458;14.540;2022-09-04T03:12:39;101353.77;;;11.22;65.11
68077;BME280;54866;53.458;14.540;2022-09-04T03:15:21;101360.38;;;11.28;65.19
68077;BME280;54866;53.458;14.540;2022-09-04T03:17:59;101355.73;;;11.26;65.42
68077;BME280;54866;53.458;14.540;2022-09-04T03:20:35;101361.92;;;11.26;65.47
68077;BME280;54866;53.458;14.540;2022-09-04T03:23:14;101359.45;;;11.26;65.55
68077;BME280;54866;53.458;14.540;2022-09-04T03:25:58;101363.10;;;11.27;65.50
68077;BME280;54866;53.458;14.540;2022-09-04T03:28:43;101362.05;;;11.26;65.64
68077;BME280;54866;53.458;14.540;2022-09-04T03:31:31;101356.90;;;11.27;65.70
68077;BME280;54866;53.458;14.540;2022-09-04T03:34:16;101363.14;;;11.26;65.82
68077;BME280;54866;53.458;14.540;2022-09-04T03:37:00;101364.16;;;11.27;66.02
68077;BME280;54866;53.458;14.540;2022-09-04T03:39:39;101368.52;;;11.27;66.05
68077;BME280;54866;53.458;14.540;2022-09-04T03:42:22;101370.13;;;11.27;66.01
68077;BME280;54866;53.458;14.540;2022-09-04T03:45:04;101369.42;;;11.27;66.14
68077;BME280;54866;53.458;14.540;2022-09-04T03:47:41;101371.74;;;11.27;66.34
68077;BME280;54866;53.458;14.540;2022-09-04T03:50:21;101374.42;;;11.26;66.47
68077;BME280;54866;53.458;14.540;2022-09-04T03:52:58;101375.98;;;11.24;66.62
68077;BME280;54866;53.458;14.540;2022-09-04T03:56:05;101378.36;;;11.20;67.11
68077;BME280;54866;53.458;14.540;2022-09-04T03:58:47;101383.02;;;11.16;67.47
68077;BME280;54866;53.458;14.540;2022-09-04T04:01:24;101385.86;;;11.14;67.58
68077;BME280;54866;53.458;14.540;2022-09-04T04:07:01;101391.84;;;11.04;68.30
68077;BME280;54866;53.458;14.540;2022-09-04T04:09:50;101386.81;;;10.98;68.24
68077;BME280;54866;53.458;14.540;2022-09-04T04:12:38;101395.36;;;10.94;68.58
68077;BME280;54866;53.458;14.540;2022-09-04T04:15:26;101396.52;;;10.90;68.96
68077;BME280;54866;53.458;14.540;2022-09-04T04:18:39;101393.27;;;10.86;68.95
68077;BME280;54866;53.458;14.540;2022-09-04T04:21:21;101391.63;;;10.84;69.12
68077;BME280;54866;53.458;14.540;2022-09-04T04:24:12;101389.07;;;10.80;69.15
68077;BME280;54866;53.458;14.540;2022-09-04T04:26:56;101398.35;;;10.84;69.54
68077;BME280;54866;53.458;14.540;2022-09-04T04:32:39;101397.16;;;10.88;69.41
68077;BME280;54866;53.458;14.540;2022-09-04T04:35:19;101404.06;;;10.91;69.50
68077;BME280;54866;53.458;14.540;2022-09-04T04:38:10;101400.02;;;10.93;69.37
68077;BME280;54866;53.458;14.540;2022-09-04T04:41:07;101407.83;;;10.95;69.49
68077;BME280;54866;53.458;14.540;2022-09-04T04:43:52;101411.08;;;10.96;69.23
68077;BME280;54866;53.458;14.540;2022-09-04T04:46:34;101415.19;;;10.98;69.23
68077;BME280;54866;53.458;14.540;2022-09-04T04:49:30;101419.95;;;10.98;69.25
68077;BME280;54866;53.458;14.540;2022-09-04T04:52:22;101418.81;;;10.99;69.25
68077;BME280;54866;53.458;14.540;2022-09-04T04:55:03;101419.50;;;11.04;69.21
68077;BME280;54866;53.458;14.540;2022-09-04T04:57:43;101423.52;;;11.10;69.01
68077;BME280;54866;53.458;14.540;2022-09-04T05:00:16;101425.65;;;11.17;69.03
68077;BME280;54866;53.458;14.540;2022-09-04T05:02:58;101427.91;;;11.28;68.85
68077;BME280;54866;53.458;14.540;2022-09-04T05:05:47;101431.69;;;12.14;66.90
68077;BME280;54866;53.458;14.540;2022-09-04T05:08:28;101431.70;;;13.42;62.61
68077;BME280;54866;53.458;14.540;2022-09-04T05:11:06;101433.29;;;14.15;60.21
68077;BME280;54866;53.458;14.540;2022-09-04T05:13:46;101431.55;;;14.64;58.07
68077;BME280;54866;53.458;14.540;2022-09-04T05:16:35;101427.10;;;15.27;56.29
68077;BME280;54866;53.458;14.540;2022-09-04T05:19:16;101428.55;;;16.06;53.73
68077;BME280;54866;53.458;14.540;2022-09-04T05:21:55;101429.88;;;16.67;51.58
68077;BME280;54866;53.458;14.540;2022-09-04T05:24:33;101433.84;;;17.28;50.06
68077;BME280;54866;53.458;14.540;2022-09-04T05:27:10;101434.19;;;17.98;48.27
68077;BME280;54866;53.458;14.540;2022-09-04T05:29:51;101437.21;;;18.54;46.46
68077;BME280;54866;53.458;14.540;2022-09-04T05:32:30;101439.78;;;19.08;44.62
68077;BME280;54866;53.458;14.540;2022-09-04T05:35:08;101442.08;;;19.58;43.15
68077;BME280;54866;53.458;14.540;2022-09-04T05:37:46;101436.16;;;20.14;42.24
68077;BME280;54866;53.458;14.540;2022-09-04T05:40:28;101437.24;;;20.62;41.19
68077;BME280;54866;53.458;14.540;2022-09-04T05:43:08;101438.95;;;20.70;40.49
68077;BME280;54866;53.458;14.540;2022-09-04T05:45:51;101444.49;;;20.71;40.61
68077;BME280;54866;53.458;14.540;2022-09-04T05:48:31;101447.48;;;21.04;39.84
68077;BME280;54866;53.458;14.540;2022-09-04T05:51:30;101448.20;;;21.73;38.74
68077;BME280;54866;53.458;14.540;2022-09-04T05:54:19;101446.55;;;21.86;37.76
68077;BME280;54866;53.458;14.540;2022-09-04T05:57:20;101453.48;;;21.65;37.99
68077;BME280;54866;53.458;14.540;2022-09-04T06:00:14;101460.96;;;21.11;38.86
68077;BME280;54866;53.458;14.540;2022-09-04T06:06:14;101469.65;;;21.31;38.92
68077;BME280;54866;53.458;14.540;2022-09-04T06:09:15;101470.83;;;21.67;38.30
68077;BME280;54866;53.458;14.540;2022-09-04T06:12:15;101469.41;;;22.17;37.32
68077;BME280;54866;53.458;14.540;2022-09-04T06:15:04;101465.68;;;21.99;36.74
68077;BME280;54866;53.458;14.540;2022-09-04T06:17:54;101471.46;;;20.09;40.38
68077;BME280;54866;53.458;14.540;2022-09-04T06:20:38;101476.23;;;18.30;44.30
68077;BME280;54866;53.458;14.540;2022-09-04T06:23:41;101482.66;;;16.93;47.80
68077;BME280;54866;53.458;14.540;2022-09-04T06:26:27;101486.02;;;16.23;49.78
68077;BME280;54866;53.458;14.540;2022-09-04T06:29:12;101484.70;;;15.66;51.89
68077;BME280;54866;53.458;14.540;2022-09-04T06:31:59;101492.66;;;15.23;53.23
68077;BME280;54866;53.458;14.540;2022-09-04T06:34:50;101492.39;;;15.38;53.46
68077;BME280;54866;53.458;14.540;2022-09-04T06:37:34;101490.38;;;15.59;53.08
68077;BME280;54866;53.458;14.540;2022-09-04T06:40:23;101497.70;;;15.53;53.51
68077;BME280;54866;53.458;14.540;2022-09-04T06:43:04;101501.92;;;15.43;53.57
68077;BME280;54866;53.458;14.540;2022-09-04T06:45:45;101503.15;;;15.31;53.97
68077;BME280;54866;53.458;14.540;2022-09-04T06:48:33;101501.94;;;15.24;54.37
68077;BME280;54866;53.458;14.540;2022-09-04T06:51:16;101504.05;;;15.14;54.80
68077;BME280;54866;53.458;14.540;2022-09-04T06:54:01;101504.27;;;15.79;53.68
68077;BME280;54866;53.458;14.540;2022-09-04T06:56:46;101502.42;;;16.21;52.26
68077;BME280;54866;53.458;14.540;2022-09-04T06:59:29;101507.85;;;16.39;51.95
68077;BME280;54866;53.458;14.540;2022-09-04T07:02:05;101502.10;;;16.48;51.47
68077;BME280;54866;53.458;14.540;2022-09-04T07:04:42;101512.06;;;17.18;50.22
68077;BME280;54866;53.458;14.540;2022-09-04T07:07:16;101507.16;;;18.70;47.39
68077;BME280;54866;53.458;14.540;2022-09-04T07:09:46;101500.07;;;20.04;43.87
68077;BME280;54866;53.458;14.540;2022-09-04T07:12:22;101499.34;;;20.60;41.90
68077;BME280;54866;53.458;14.540;2022-09-04T07:15:09;101504.06;;;21.27;40.63
68077;BME280;54866;53.458;14.540;2022-09-04T07:17:45;101503.52;;;22.94;39.45
68077;BME280;54866;53.458;14.540;2022-09-04T07:20:21;101494.29;;;23.87;34.78
68077;BME280;54866;53.458;14.540;2022-09-04T07:23:01;101501.29;;;24.88;34.31
68077;BME280;54866;53.458;14.540;2022-09-04T07:25:36;101507.34;;;25.73;33.36
68077;BME280;54866;53.458;14.540;2022-09-04T07:28:15;101502.05;;;26.64;32.11
68077;BME280;54866;53.458;14.540;2022-09-04T07:30:47;101498.41;;;27.00;30.54
68077;BME280;54866;53.458;14.540;2022-09-04T07:33:19;101506.27;;;27.23;30.25
68077;BME280;54866;53.458;14.540;2022-09-04T07:35:52;101505.18;;;27.61;29.91
68077;BME280;54866;53.458;14.540;2022-09-04T07:38:25;101503.88;;;28.11;29.87
68077;BME280;54866;53.458;14.540;2022-09-04T07:40:58;101501.02;;;28.54;28.50
68077;BME280;54866;53.458;14.540;2022-09-04T07:43:32;101497.54;;;28.97;27.73
68077;BME280;54866;53.458;14.540;2022-09-04T07:46:05;101502.77;;;29.31;28.09
68077;BME280;54866;53.458;14.540;2022-09-04T07:48:39;101502.84;;;29.94;27.38
68077;BME280;54866;53.458;14.540;2022-09-04T07:51:11;101505.75;;;30.03;26.81
68077;BME280;54866;53.458;14.540;2022-09-04T07:56:28;101504.46;;;30.70;25.85
68077;BME280;54866;53.458;14.540;2022-09-04T07:59:02;101500.94;;;30.85;25.89
68077;BME280;54866;53.458;14.540;2022-09-04T08:01:41;101492.98;;;31.24;26.13
68077;BME280;54866;53.458;14.540;2022-09-04T08:07:06;101498.91;;;32.08;24.46
68077;BME280;54866;53.458;14.540;2022-09-04T08:09:45;101500.64;;;32.02;23.75
68077;BME280;54866;53.458;14.540;2022-09-04T08:12:37;101508.73;;;31.42;24.65
68077;BME280;54866;53.458;14.540;2022-09-04T08:15:16;101509.02;;;31.25;24.69
68077;BME280;54866;53.458;14.540;2022-09-04T08:17:49;101510.12;;;31.37;24.25
68077;BME280;54866;53.458;14.540;2022-09-04T08:20:24;101502.52;;;31.66;24.11
68077;BME280;54866;53.458;14.540;2022-09-04T08:23:01;101505.05;;;31.75;23.93
68077;BME280;54866;53.458;14.540;2022-09-04T08:25:39;101507.29;;;31.70;24.09
68077;BME280;54866;53.458;14.540;2022-09-04T08:28:21;101512.00;;;31.75;23.90
68077;BME280;54866;53.458;14.540;2022-09-04T08:31:01;101511.02;;;32.11;23.85
68077;BME280;54866;53.458;14.540;2022-09-04T08:36:14;101514.23;;;32.03;24.00
68077;BME280;54866;53.458;14.540;2022-09-04T08:38:51;101513.70;;;31.84;23.98
68077;BME280;54866;53.458;14.540;2022-09-04T08:50:01;101516.73;;;32.41;23.83
68077;BME280;54866;53.458;14.540;2022-09-04T08:55:39;101514.29;;;33.53;21.91
68077;BME280;54866;53.458;14.540;2022-09-04T09:01:19;101519.69;;;32.46;22.21
68077;BME280;54866;53.458;14.540;2022-09-04T09:06:45;101527.40;;;32.00;22.95
68077;BME280;54866;53.458;14.540;2022-09-04T09:12:18;101526.20;;;32.18;22.53
68077;BME280;54866;53.458;14.540;2022-09-04T09:14:58;101530.90;;;32.48;22.46
68077;BME280;54866;53.458;14.540;2022-09-04T09:17:36;101531.39;;;32.77;22.46
68077;BME280;54866;53.458;14.540;2022-09-04T09:20:21;101531.70;;;33.11;22.41
68077;BME280;54866;53.458;14.540;2022-09-04T09:25:39;101526.45;;;33.86;21.35
68077;BME280;54866;53.458;14.540;2022-09-04T09:33:47;101519.33;;;32.42;20.85
68077;BME280;54866;53.458;14.540;2022-09-04T09:41:59;101525.69;;;31.19;22.67
68077;BME280;54866;53.458;14.540;2022-09-04T09:47:38;101529.36;;;30.70;23.33
68077;BME280;54866;53.458;14.540;2022-09-04T09:55:43;101524.23;;;29.90;24.05
68077;BME280;54866;53.458;14.540;2022-09-04T10:06:40;101520.84;;;30.14;23.75
68077;BME280;54866;53.458;14.540;2022-09-04T10:14:46;101521.38;;;29.24;25.01
68077;BME280;54866;53.458;14.540;2022-09-04T10:17:26;101521.59;;;29.09;25.15
68077;BME280;54866;53.458;14.540;2022-09-04T10:20:05;101523.30;;;28.89;25.30
68077;BME280;54866;53.458;14.540;2022-09-04T10:22:54;101526.34;;;28.71;25.56
68077;BME280;54866;53.458;14.540;2022-09-04T10:25:35;101526.96;;;28.97;25.31
68077;BME280;54866;53.458;14.540;2022-09-04T10:31:10;101529.39;;;29.63;24.68
68077;BME280;54866;53.458;14.540;2022-09-04T10:33:46;101529.89;;;29.53;24.39
68077;BME280;54866;53.458;14.540;2022-09-04T10:36:23;101528.98;;;29.52;24.79
68077;BME280;54866;53.458;14.540;2022-09-04T10:39:01;101535.92;;;29.90;24.82
68077;BME280;54866;53.458;14.540;2022-09-04T10:41:55;101531.96;;;29.98;24.53
68077;BME280;54866;53.458;14.540;2022-09-04T10:44:30;101527.45;;;29.99;23.99
68077;BME280;54866;53.458;14.540;2022-09-04T10:47:05;101534.30;;;29.88;23.95
68077;BME280;54866;53.458;14.540;2022-09-04T10:49:46;101529.28;;;29.72;24.02
68077;BME280;54866;53.458;14.540;2022-09-04T10:52:31;101531.33;;;29.77;24.35
68077;BME280;54866;53.458;14.540;2022-09-04T10:55:17;101526.63;;;29.70;23.91
68077;BME280;54866;53.458;14.540;2022-09-04T11:00:37;101532.08;;;29.00;24.74
68077;BME280;54866;53.458;14.540;2022-09-04T11:08:59;101532.27;;;29.68;24.86
68077;BME280;54866;53.458;14.540;2022-09-04T11:14:28;101532.46;;;30.19;23.17
68077;BME280;54866;53.458;14.540;2022-09-04T11:20:11;101533.84;;;30.50;23.03
68077;BME280;54866;53.458;14.540;2022-09-04T11:23:05;101537.88;;;30.53;22.99
68077;BME280;54866;53.458;14.540;2022-09-04T11:28:47;101535.39;;;30.07;22.67
68077;BME280;54866;53.458;14.540;2022-09-04T11:31:28;101536.07;;;29.80;23.10
68077;BME280;54866;53.458;14.540;2022-09-04T11:34:04;101542.05;;;29.70;23.37
68077;BME280;54866;53.458;14.540;2022-09-04T11:36:49;101532.55;;;29.64;23.22
68077;BME280;54866;53.458;14.540;2022-09-04T11:39:32;101529.73;;;29.61;23.47
68077;BME280;54866;53.458;14.540;2022-09-04T11:42:25;101531.90;;;29.70;23.30
68077;BME280;54866;53.458;14.540;2022-09-04T11:45:02;101530.88;;;29.80;23.22
68077;BME280;54866;53.458;14.540;2022-09-04T11:50:38;101529.66;;;29.91;23.69
68077;BME280;54866;53.458;14.540;2022-09-04T11:58:45;101519.90;;;29.93;22.87
68077;BME280;54866;53.458;14.540;2022-09-04T12:01:21;101514.59;;;29.85;21.95
68077;BME280;54866;53.458;14.540;2022-09-04T12:03:58;101513.12;;;29.71;22.04
68077;BME280;54866;53.458;14.540;2022-09-04T12:06:36;101506.83;;;29.32;22.39
68077;BME280;54866;53.458;14.540;2022-09-04T12:14:48;101503.27;;;28.00;24.03
68077;BME280;54866;53.458;14.540;2022-09-04T12:28:31;101507.71;;;29.63;23.40
68077;BME280;54866;53.458;14.540;2022-09-04T12:31:06;101504.14;;;29.87;22.53
68077;BME280;54866;53.458;14.540;2022-09-04T12:33:45;101505.66;;;29.66;22.90
68077;BME280;54866;53.458;14.540;2022-09-04T12:41:55;101502.48;;;28.57;23.07
68077;BME280;54866;53.458;14.540;2022-09-04T12:44:29;101501.98;;;28.75;23.34
68077;BME280;54866;53.458;14.540;2022-09-04T12:47:03;101504.51;;;28.60;22.67
68077;BME280;54866;53.458;14.540;2022-09-04T12:49:51;101511.13;;;27.85;23.34
68077;BME280;54866;53.458;14.540;2022-09-04T12:52:26;101515.95;;;27.21;24.62
68077;BME280;54866;53.458;14.540;2022-09-04T12:55:01;101521.93;;;26.68;25.19
68077;BME280;54866;53.458;14.540;2022-09-04T12:57:36;101523.38;;;26.31;25.83
68077;BME280;54866;53.458;14.540;2022-09-04T13:00:09;101516.45;;;26.28;25.87
68077;BME280;54866;53.458;14.540;2022-09-04T13:02:42;101514.20;;;26.63;25.61
68077;BME280;54866;53.458;14.540;2022-09-04T13:05:21;101509.52;;;26.88;25.21
68077;BME280;54866;53.458;14.540;2022-09-04T13:07:55;101508.56;;;27.23;24.66
68077;BME280;54866;53.458;14.540;2022-09-04T13:10:28;101508.14;;;27.64;24.39
68077;BME280;54866;53.458;14.540;2022-09-04T13:13:04;101511.99;;;28.05;24.81
68077;BME280;54866;53.458;14.540;2022-09-04T13:15:37;101517.03;;;27.68;24.08
68077;BME280;54866;53.458;14.540;2022-09-04T13:18:11;101518.36;;;27.12;24.72
68077;BME280;54866;53.458;14.540;2022-09-04T13:20:44;101517.23;;;26.57;24.89
68077;BME280;54866;53.458;14.540;2022-09-04T13:23:24;101520.59;;;26.03;24.84
68077;BME280;54866;53.458;14.540;2022-09-04T13:26:09;101529.02;;;25.75;25.53
68077;BME280;54866;53.458;14.540;2022-09-04T13:28:43;101530.39;;;25.95;25.72
68077;BME280;54866;53.458;14.540;2022-09-04T13:31:29;101526.48;;;26.24;25.57
68077;BME280;54866;53.458;14.540;2022-09-04T13:34:01;101526.39;;;26.52;25.82
68077;BME280;54866;53.458;14.540;2022-09-04T13:36:32;101525.41;;;26.80;26.08
68077;BME280;54866;53.458;14.540;2022-09-04T13:39:10;101521.42;;;27.09;25.54
68077;BME280;54866;53.458;14.540;2022-09-04T13:41:48;101525.77;;;26.91;25.45
68077;BME280;54866;53.458;14.540;2022-09-04T13:44:33;101524.71;;;26.93;24.81
68077;BME280;54866;53.458;14.540;2022-09-04T13:47:10;101526.68;;;27.14;24.46
68077;BME280;54866;53.458;14.540;2022-09-04T13:49:40;101528.27;;;27.32;24.34
68077;BME280;54866;53.458;14.540;2022-09-04T13:52:14;101524.75;;;27.37;24.34
68077;BME280;54866;53.458;14.540;2022-09-04T13:54:44;101526.00;;;27.45;24.08
68077;BME280;54866;53.458;14.540;2022-09-04T13:57:14;101526.99;;;27.51;24.15
68077;BME280;54866;53.458;14.540;2022-09-04T13:59:43;101523.70;;;27.38;23.51
68077;BME280;54866;53.458;14.540;2022-09-04T14:02:15;101525.02;;;27.01;23.57
68077;BME280;54866;53.458;14.540;2022-09-04T14:04:51;101526.02;;;26.47;23.74
68077;BME280;54866;53.458;14.540;2022-09-04T14:07:22;101525.35;;;26.52;24.10
68077;BME280;54866;53.458;14.540;2022-09-04T14:09:52;101525.57;;;26.80;24.18
68077;BME280;54866;53.458;14.540;2022-09-04T14:12:30;101523.17;;;27.27;24.30
68077;BME280;54866;53.458;14.540;2022-09-04T14:15:10;101523.77;;;27.59;23.84
68077;BME280;54866;53.458;14.540;2022-09-04T14:17:44;101526.17;;;27.42;23.31
68077;BME280;54866;53.458;14.540;2022-09-04T14:20:15;101525.11;;;26.82;23.89
68077;BME280;54866;53.458;14.540;2022-09-04T14:22:50;101530.63;;;26.45;24.36
68077;BME280;54866;53.458;14.540;2022-09-04T14:25:22;101526.71;;;26.39;24.37
68077;BME280;54866;53.458;14.540;2022-09-04T14:27:55;101530.60;;;26.37;24.69
68077;BME280;54866;53.458;14.540;2022-09-04T14:30:29;101520.95;;;26.36;25.32
68077;BME280;54866;53.458;14.540;2022-09-04T14:33:06;101526.58;;;26.56;25.66
68077;BME280;54866;53.458;14.540;2022-09-04T14:35:39;101519.55;;;26.92;25.08
68077;BME280;54866;53.458;14.540;2022-09-04T14:38:27;101518.90;;;27.01;23.89
68077;BME280;54866;53.458;14.540;2022-09-04T14:41:04;101519.41;;;26.63;24.31
68077;BME280;54866;53.458;14.540;2022-09-04T14:43:39;101526.61;;;26.58;25.25
68077;BME280;54866;53.458;14.540;2022-09-04T14:46:13;101527.34;;;26.83;24.98
68077;BME280;54866;53.458;14.540;2022-09-04T14:48:47;101512.98;;;27.08;24.61
68077;BME280;54866;53.458;14.540;2022-09-04T14:51:30;101520.67;;;27.12;24.48
68077;BME280;54866;53.458;14.540;2022-09-04T14:54:01;101523.10;;;26.73;24.32
68077;BME280;54866;53.458;14.540;2022-09-04T14:56:32;101526.98;;;26.33;24.73
68077;BME280;54866;53.458;14.540;2022-09-04T14:59:10;101531.16;;;26.28;25.24
68077;BME280;54866;53.458;14.540;2022-09-04T15:04:23;101531.92;;;26.23;25.77
68077;BME280;54866;53.458;14.540;2022-09-04T15:06:53;101533.59;;;25.94;26.44
68077;BME280;54866;53.458;14.540;2022-09-04T15:09:24;101532.10;;;25.88;26.96
68077;BME280;54866;53.458;14.540;2022-09-04T15:11:53;101534.73;;;25.96;26.90
68077;BME280;54866;53.458;14.540;2022-09-04T15:14:24;101528.81;;;26.16;26.73
68077;BME280;54866;53.458;14.540;2022-09-04T15:16:59;101528.45;;;26.02;26.28
68077;BME280;54866;53.458;14.540;2022-09-04T15:22:17;101521.66;;;25.05;27.10
68077;BME280;54866;53.458;14.540;2022-09-04T15:24:51;101523.85;;;24.91;27.39
68077;BME280;54866;53.458;14.540;2022-09-04T15:27:23;101523.00;;;25.04;27.48
68077;BME280;54866;53.458;14.540;2022-09-04T15:30:04;101526.52;;;25.16;27.54
68077;BME280;54866;53.458;14.540;2022-09-04T15:32:37;101519.55;;;25.05;28.12
68077;BME280;54866;53.458;14.540;2022-09-04T15:35:10;101523.59;;;24.76;28.28
68077;BME280;54866;53.458;14.540;2022-09-04T15:37:40;101526.49;;;24.60;28.76
68077;BME280;54866;53.458;14.540;2022-09-04T15:40:09;101529.33;;;24.49;29.31
68077;BME280;54866;53.458;14.540;2022-09-04T15:42:41;101528.52;;;24.34;29.95
68077;BME280;54866;53.458;14.540;2022-09-04T15:45:13;101532.33;;;24.04;29.99
68077;BME280;54866;53.458;14.540;2022-09-04T15:50:26;101539.87;;;23.43;31.33
68077;BME280;54866;53.458;14.540;2022-09-04T15:52:56;101537.31;;;23.21;31.91
68077;BME280;54866;53.458;14.540;2022-09-04T15:55:28;101537.05;;;23.10;32.02
68077;BME280;54866;53.458;14.540;2022-09-04T15:57:58;101539.81;;;22.98;32.78
68077;BME280;54866;53.458;14.540;2022-09-04T16:00:30;101539.55;;;22.86;32.42
68077;BME280;54866;53.458;14.540;2022-09-04T16:03:04;101540.67;;;22.84;32.91